sensor_id;sensor_type;location;lat;lon;timestamp;temperature;humidity
3075;DHT22;1548;51.716;8.748;2022-12-05T00:01:33;2.40;85.10
3075;DHT22;1548;51.716;8.748;2022-12-05T00:04:05;2.50;85.20
3075;DHT22;1548;51.716;8.748;2022-12-05T00:06:33;2.50;85.10
3075;DHT22;1548;51.716;8.748;2022-12-05T00:08:59;2.50;85.00
3075;DHT22;1548;51.716;8.748;2022-12-05T00:11:30;2.50;85.00
3075;DHT22;1548;51.716;8.748;2022-12-05T00:13:58;2.50;85.10
3075;DHT22;1548;51.716;8.748;2022-12-05T00:16:25;2.50;85.10
3075;DHT22;1548;51.716;8.748;2022-12-05T00:18:52;2.50;85.00
3075;DHT22;1548;51.716;8.748;2022-12-05T00:21:24;2.50;85.10
3075;DHT22;1548;51.716;8.748;2022-12-05T00:23:51;2.50;85.10
3075;DHT22;1548;51.716;8.748;2022-12-05T00:26:17;2.50;85.00
3075;DHT22;1548;51.716;8.748;2022-12-05T00:28:43;2.50;85.10
3075;DHT22;1548;51.716;8.748;2022-12-05T00:31:14;2.40;85.00
3075;DHT22;1548;51.716;8.748;2022-12-05T00:33:41;2.40;85.00
3075;DHT22;1548;51.716;8.748;2022-12-05T00:36:12;2.50;85.00
3075;DHT22;1548;51.716;8.748;2022-12-05T00:38:38;2.40;85.00
3075;DHT22;1548;51.716;8.748;2022-12-05T00:41:08;2.30;85.00
3075;DHT22;1548;51.716;8.748;2022-12-05T00:43:34;2.40;85.10
3075;DHT22;1548;51.716;8.748;2022-12-05T00:46:01;2.40;85.10
3075;DHT22;1548;51.716;8.748;2022-12-05T00:48:27;2.40;85.10
3075;DHT22;1548;51.716;8.748;2022-12-05T00:51:02;2.50;85.00
3075;DHT22;1548;51.716;8.748;2022-12-05T00:53:29;2.50;85.10
3075;DHT22;1548;51.716;8.748;2022-12-05T00:55:54;2.50;85.00
3075;DHT22;1548;51.716;8.748;2022-12-05T00:58:20;2.50;85.10
3075;DHT22;1548;51.716;8.748;2022-12-05T01:00:45;2.50;85.10
3075;DHT22;1548;51.716;8.748;2022-12-05T01:03:11;2.50;85.00
3075;DHT22;1548;51.716;8.748;2022-12-05T01:05:36;2.50;85.10
3075;DHT22;1548;51.716;8.748;2022-12-05T01:08:02;2.50;85.10
3075;DHT22;1548;51.716;8.748;2022-12-05T01:10:28;2.50;85.00
3075;DHT22;1548;51.716;8.748;2022-12-05T01:12:53;2.50;85.10
3075;DHT22;1548;51.716;8.748;2022-12-05T01:15:19;2.50;85.10
3075;DHT22;1548;51.716;8.748;2022-12-05T01:17:44;2.40;85.00
3075;DHT22;1548;51.716;8.748;2022-12-05T01:20:10;2.40;85.00
3075;DHT22;1548;51.716;8.748;2022-12-05T01:22:36;2.50;85.00
3075;DHT22;1548;51.716;8.748;2022-12-05T01:25:01;2.50;85.00
3075;DHT22;1548;51.716;8.748;2022-12-05T01:27:27;2.70;85.10
3075;DHT22;1548;51.716;8.748;2022-12-05T01:29:53;2.70;85.20
3075;DHT22;1548;51.716;8.748;2022-12-05T01:32:18;2.60;85.10
3075;DHT22;1548;51.716;8.748;2022-12-05T01:34:44;2.50;85.00
3075;DHT22;1548;51.716;8.748;2022-12-05T01:37:09;2.50;85.00
3075;DHT22;1548;51.716;8.748;2022-12-05T01:39:35;2.40;85.00
3075;DHT22;1548;51.716;8.748;2022-12-05T01:42:01;2.40;84.90
3075;DHT22;1548;51.716;8.748;2022-12-05T01:46:55;2.50;85.00
3075;DHT22;1548;51.716;8.748;2022-12-05T01:49:32;2.50;85.20
3075;DHT22;1548;51.716;8.748;2022-12-05T01:52:04;2.40;85.10
3075;DHT22;1548;51.716;8.748;2022-12-05T01:54:31;2.50;85.00
3075;DHT22;1548;51.716;8.748;2022-12-05T01:57:00;2.50;85.00
3075;DHT22;1548;51.716;8.748;2022-12-05T01:59:27;2.30;85.00
3075;DHT22;1548;51.716;8.748;2022-12-05T02:01:54;2.30;85.00
3075;DHT22;1548;51.716;8.748;2022-12-05T02:04:20;2.40;85.00
3075;DHT22;1548;51.716;8.748;2022-12-05T02:06:46;2.40;85.00
3075;DHT22;1548;51.716;8.748;2022-12-05T02:09:12;2.30;85.00
3075;DHT22;1548;51.716;8.748;2022-12-05T02:11:50;2.30;84.90
3075;DHT22;1548;51.716;8.748;2022-12-05T02:14:55;2.30;85.00
3075;DHT22;1548;51.716;8.748;2022-12-05T02:20:10;2.30;85.10
3075;DHT22;1548;51.716;8.748;2022-12-05T02:22:52;2.20;84.90
3075;DHT22;1548;51.716;8.748;2022-12-05T02:28:29;2.30;85.10
3075;DHT22;1548;51.716;8.748;2022-12-05T02:33:45;2.40;85.00
3075;DHT22;1548;51.716;8.748;2022-12-05T02:36:22;2.40;85.10
3075;DHT22;1548;51.716;8.748;2022-12-05T02:39:04;2.40;85.10
3075;DHT22;1548;51.716;8.748;2022-12-05T02:42:02;2.40;85.10
3075;DHT22;1548;51.716;8.748;2022-12-05T02:44:33;2.40;85.20
3075;DHT22;1548;51.716;8.748;2022-12-05T02:47:00;2.40;85.20
3075;DHT22;1548;51.716;8.748;2022-12-05T02:49:30;2.40;85.10
3075;DHT22;1548;51.716;8.748;2022-12-05T02:51:59;2.40;85.10
3075;DHT22;1548;51.716;8.748;2022-12-05T02:54:30;2.30;85.10
3075;DHT22;1548;51.716;8.748;2022-12-05T02:56:58;2.40;85.10
3075;DHT22;1548;51.716;8.748;2022-12-05T02:59:24;2.40;85.20
3075;DHT22;1548;51.716;8.748;2022-12-05T03:01:50;2.40;85.20
3075;DHT22;1548;51.716;8.748;2022-12-05T03:04:18;2.30;85.10
3075;DHT22;1548;51.716;8.748;2022-12-05T03:06:49;2.30;85.10
3075;DHT22;1548;51.716;8.748;2022-12-05T03:10:02;2.40;85.20
3075;DHT22;1548;51.716;8.748;2022-12-05T03:14:38;2.40;85.20
3075;DHT22;1548;51.716;8.748;2022-12-05T03:17:17;2.30;85.10
3075;DHT22;1548;51.716;8.748;2022-12-05T03:22:41;2.40;85.20
3075;DHT22;1548;51.716;8.748;2022-12-05T03:25:09;2.40;85.20
3075;DHT22;1548;51.716;8.748;2022-12-05T03:28:05;2.40;85.20
3075;DHT22;1548;51.716;8.748;2022-12-05T03:30:34;2.40;85.20
3075;DHT22;1548;51.716;8.748;2022-12-05T03:33:07;2.40;85.20
3075;DHT22;1548;51.716;8.748;2022-12-05T03:35:42;2.40;85.20
3075;DHT22;1548;51.716;8.748;2022-12-05T03:38:13;2.50;85.20
3075;DHT22;1548;51.716;8.748;2022-12-05T03:41:06;2.40;85.20
3075;DHT22;1548;51.716;8.748;2022-12-05T03:43:40;2.30;85.20
3075;DHT22;1548;51.716;8.748;2022-12-05T03:46:57;2.40;85.10
3075;DHT22;1548;51.716;8.748;2022-12-05T03:49:05;2.40;85.20
3075;DHT22;1548;51.716;8.748;2022-12-05T03:51:34;2.40;85.10
3075;DHT22;1548;51.716;8.748;2022-12-05T03:54:13;2.40;85.10
3075;DHT22;1548;51.716;8.748;2022-12-05T03:57:02;2.30;85.20
3075;DHT22;1548;51.716;8.748;2022-12-05T04:02:32;2.40;85.10
3075;DHT22;1548;51.716;8.748;2022-12-05T04:05:15;2.30;85.10
3075;DHT22;1548;51.716;8.748;2022-12-05T04:07:44;2.40;85.20
3075;DHT22;1548;51.716;8.748;2022-12-05T04:10:17;2.40;85.20
3075;DHT22;1548;51.716;8.748;2022-12-05T04:12:45;2.40;85.20
3075;DHT22;1548;51.716;8.748;2022-12-05T04:15:19;2.50;85.10
3075;DHT22;1548;51.716;8.748;2022-12-05T04:20:35;2.60;85.30
3075;DHT22;1548;51.716;8.748;2022-12-05T04:23:20;2.50;85.30
3075;DHT22;1548;51.716;8.748;2022-12-05T04:26:01;2.50;85.10
3075;DHT22;1548;51.716;8.748;2022-12-05T04:31:07;2.50;85.20
3075;DHT22;1548;51.716;8.748;2022-12-05T04:33:49;2.60;85.30
3075;DHT22;1548;51.716;8.748;2022-12-05T04:38:58;2.60;85.20
3075;DHT22;1548;51.716;8.748;2022-12-05T04:41:31;2.70;85.20
3075;DHT22;1548;51.716;8.748;2022-12-05T04:44:03;2.80;85.00
3075;DHT22;1548;51.716;8.748;2022-12-05T04:46:32;2.80;85.10
3075;DHT22;1548;51.716;8.748;2022-12-05T04:49:00;2.80;85.20
3075;DHT22;1548;51.716;8.748;2022-12-05T04:51:30;2.80;85.10
3075;DHT22;1548;51.716;8.748;2022-12-05T04:54:03;2.80;85.00
3075;DHT22;1548;51.716;8.748;2022-12-05T04:56:33;2.80;85.20
3075;DHT22;1548;51.716;8.748;2022-12-05T04:58:59;2.70;85.10
3075;DHT22;1548;51.716;8.748;2022-12-05T05:01:31;2.70;85.20
3075;DHT22;1548;51.716;8.748;2022-12-05T05:04:10;2.80;85.10
3075;DHT22;1548;51.716;8.748;2022-12-05T05:06:38;2.80;85.00
3075;DHT22;1548;51.716;8.748;2022-12-05T05:09:04;2.80;85.20
3075;DHT22;1548;51.716;8.748;2022-12-05T05:11:33;2.70;85.10
3075;DHT22;1548;51.716;8.748;2022-12-05T05:13:59;2.70;85.10
3075;DHT22;1548;51.716;8.748;2022-12-05T05:16:31;2.70;85.30
3075;DHT22;1548;51.716;8.748;2022-12-05T05:18:57;2.50;85.10
3075;DHT22;1548;51.716;8.748;2022-12-05T05:23:49;2.50;85.10
3075;DHT22;1548;51.716;8.748;2022-12-05T05:26:16;2.50;85.00
3075;DHT22;1548;51.716;8.748;2022-12-05T05:28:42;2.60;85.10
3075;DHT22;1548;51.716;8.748;2022-12-05T05:31:07;2.50;85.30
3075;DHT22;1548;51.716;8.748;2022-12-05T05:33:34;2.50;85.10
3075;DHT22;1548;51.716;8.748;2022-12-05T05:36:08;2.50;85.00
3075;DHT22;1548;51.716;8.748;2022-12-05T05:38:39;2.50;85.10
3075;DHT22;1548;51.716;8.748;2022-12-05T05:41:10;2.50;85.10
3075;DHT22;1548;51.716;8.748;2022-12-05T05:43:36;2.50;85.20
3075;DHT22;1548;51.716;8.748;2022-12-05T05:46:03;2.40;85.10
3075;DHT22;1548;51.716;8.748;2022-12-05T05:48:29;2.50;85.10
3075;DHT22;1548;51.716;8.748;2022-12-05T05:50:57;2.40;85.10
3075;DHT22;1548;51.716;8.748;2022-12-05T05:53:22;2.50;85.10
3075;DHT22;1548;51.716;8.748;2022-12-05T05:55:48;2.50;85.20
3075;DHT22;1548;51.716;8.748;2022-12-05T05:58:13;2.40;85.10
3075;DHT22;1548;51.716;8.748;2022-12-05T06:00:39;2.50;85.10
3075;DHT22;1548;51.716;8.748;2022-12-05T06:03:05;2.50;85.30
3075;DHT22;1548;51.716;8.748;2022-12-05T06:05:30;2.50;85.10
3075;DHT22;1548;51.716;8.748;2022-12-05T06:07:56;2.40;85.10
3075;DHT22;1548;51.716;8.748;2022-12-05T06:10:22;2.40;85.10
3075;DHT22;1548;51.716;8.748;2022-12-05T06:12:48;2.50;85.20
3075;DHT22;1548;51.716;8.748;2022-12-05T06:15:13;2.40;85.10
3075;DHT22;1548;51.716;8.748;2022-12-05T06:17:39;2.40;85.20
3075;DHT22;1548;51.716;8.748;2022-12-05T06:20:05;2.50;85.10
3075;DHT22;1548;51.716;8.748;2022-12-05T06:22:31;2.40;85.10
3075;DHT22;1548;51.716;8.748;2022-12-05T06:24:57;2.50;85.10
3075;DHT22;1548;51.716;8.748;2022-12-05T06:27:23;2.50;85.20
3075;DHT22;1548;51.716;8.748;2022-12-05T06:29:48;2.50;85.20
3075;DHT22;1548;51.716;8.748;2022-12-05T06:32:14;2.40;85.10
3075;DHT22;1548;51.716;8.748;2022-12-05T06:34:40;2.40;85.20
3075;DHT22;1548;51.716;8.748;2022-12-05T06:37:06;2.30;85.30
3075;DHT22;1548;51.716;8.748;2022-12-05T06:39:31;2.20;85.10
3075;DHT22;1548;51.716;8.748;2022-12-05T06:41:57;2.30;85.10
3075;DHT22;1548;51.716;8.748;2022-12-05T06:44:23;2.20;85.20
3075;DHT22;1548;51.716;8.748;2022-12-05T06:46:52;2.10;85.20
3075;DHT22;1548;51.716;8.748;2022-12-05T06:49:18;2.00;85.40
3075;DHT22;1548;51.716;8.748;2022-12-05T06:51:43;1.90;85.10
3075;DHT22;1548;51.716;8.748;2022-12-05T06:54:11;1.90;85.40
3075;DHT22;1548;51.716;8.748;2022-12-05T06:56:37;1.90;85.10
3075;DHT22;1548;51.716;8.748;2022-12-05T06:59:02;1.90;85.40
3075;DHT22;1548;51.716;8.748;2022-12-05T07:01:28;1.80;85.30
3075;DHT22;1548;51.716;8.748;2022-12-05T07:04:04;1.80;85.50
3075;DHT22;1548;51.716;8.748;2022-12-05T07:06:31;1.80;85.20
3075;DHT22;1548;51.716;8.748;2022-12-05T07:08:56;1.80;85.20
3075;DHT22;1548;51.716;8.748;2022-12-05T07:11:22;1.90;85.30
3075;DHT22;1548;51.716;8.748;2022-12-05T07:13:48;1.90;85.10
3075;DHT22;1548;51.716;8.748;2022-12-05T07:16:14;1.90;85.10
3075;DHT22;1548;51.716;8.748;2022-12-05T07:18:39;1.90;85.40
3075;DHT22;1548;51.716;8.748;2022-12-05T07:21:07;1.90;85.10
3075;DHT22;1548;51.716;8.748;2022-12-05T07:23:33;1.80;85.30
3075;DHT22;1548;51.716;8.748;2022-12-05T07:25:59;1.80;85.30
3075;DHT22;1548;51.716;8.748;2022-12-05T07:28:28;1.80;85.30
3075;DHT22;1548;51.716;8.748;2022-12-05T07:31:00;1.80;85.20
3075;DHT22;1548;51.716;8.748;2022-12-05T07:33:27;1.80;85.30
3075;DHT22;1548;51.716;8.748;2022-12-05T07:36:03;1.80;85.40
3075;DHT22;1548;51.716;8.748;2022-12-05T07:38:29;1.80;85.30
3075;DHT22;1548;51.716;8.748;2022-12-05T07:40:54;1.70;85.30
3075;DHT22;1548;51.716;8.748;2022-12-05T07:43:22;1.60;85.30
3075;DHT22;1548;51.716;8.748;2022-12-05T07:45:48;1.60;85.40
3075;DHT22;1548;51.716;8.748;2022-12-05T07:48:14;1.60;85.30
3075;DHT22;1548;51.716;8.748;2022-12-05T07:50:39;1.60;85.30
3075;DHT22;1548;51.716;8.748;2022-12-05T07:53:05;1.50;85.30
3075;DHT22;1548;51.716;8.748;2022-12-05T07:55:31;1.50;85.20
3075;DHT22;1548;51.716;8.748;2022-12-05T07:57:57;1.50;85.20
3075;DHT22;1548;51.716;8.748;2022-12-05T08:00:22;1.60;85.40
3075;DHT22;1548;51.716;8.748;2022-12-05T08:02:48;1.50;85.30
3075;DHT22;1548;51.716;8.748;2022-12-05T08:05:13;1.50;85.20
3075;DHT22;1548;51.716;8.748;2022-12-05T08:07:40;1.50;85.20
3075;DHT22;1548;51.716;8.748;2022-12-05T08:10:06;1.50;85.30
3075;DHT22;1548;51.716;8.748;2022-12-05T08:12:32;1.50;85.20
3075;DHT22;1548;51.716;8.748;2022-12-05T08:14:58;1.40;85.40
3075;DHT22;1548;51.716;8.748;2022-12-05T08:17:23;1.30;85.30
3075;DHT22;1548;51.716;8.748;2022-12-05T08:19:49;1.20;85.10
3075;DHT22;1548;51.716;8.748;2022-12-05T08:22:15;1.20;85.20
3075;DHT22;1548;51.716;8.748;2022-12-05T08:24:40;1.20;85.20
3075;DHT22;1548;51.716;8.748;2022-12-05T08:27:06;1.20;85.10
3075;DHT22;1548;51.716;8.748;2022-12-05T08:29:31;1.30;85.30
3075;DHT22;1548;51.716;8.748;2022-12-05T08:31:57;1.30;85.30
3075;DHT22;1548;51.716;8.748;2022-12-05T08:34:23;1.20;85.20
3075;DHT22;1548;51.716;8.748;2022-12-05T08:36:49;1.30;85.20
3075;DHT22;1548;51.716;8.748;2022-12-05T08:39:17;1.30;85.30
3075;DHT22;1548;51.716;8.748;2022-12-05T08:41:44;1.30;85.30
3075;DHT22;1548;51.716;8.748;2022-12-05T08:44:11;1.20;85.30
3075;DHT22;1548;51.716;8.748;2022-12-05T08:46:41;1.10;85.20
3075;DHT22;1548;51.716;8.748;2022-12-05T08:49:08;1.00;85.30
3075;DHT22;1548;51.716;8.748;2022-12-05T08:51:34;1.10;85.00
3075;DHT22;1548;51.716;8.748;2022-12-05T08:54:03;1.10;85.20
3075;DHT22;1548;51.716;8.748;2022-12-05T08:56:30;1.00;85.20
3075;DHT22;1548;51.716;8.748;2022-12-05T08:58:58;1.00;85.20
3075;DHT22;1548;51.716;8.748;2022-12-05T09:01:23;1.00;85.20
3075;DHT22;1548;51.716;8.748;2022-12-05T09:03:54;1.00;85.20
3075;DHT22;1548;51.716;8.748;2022-12-05T09:06:22;1.00;85.10
3075;DHT22;1548;51.716;8.748;2022-12-05T09:08:48;1.10;85.00
3075;DHT22;1548;51.716;8.748;2022-12-05T09:11:19;1.10;85.10
3075;DHT22;1548;51.716;8.748;2022-12-05T09:13:47;1.10;85.00
3075;DHT22;1548;51.716;8.748;2022-12-05T09:16:18;1.10;85.10
3075;DHT22;1548;51.716;8.748;2022-12-05T09:18:44;1.10;85.10
3075;DHT22;1548;51.716;8.748;2022-12-05T09:21:19;1.10;85.10
3075;DHT22;1548;51.716;8.748;2022-12-05T09:23:45;1.20;85.00
3075;DHT22;1548;51.716;8.748;2022-12-05T09:26:14;1.10;85.10
3075;DHT22;1548;51.716;8.748;2022-12-05T09:28:41;1.10;85.10
3075;DHT22;1548;51.716;8.748;2022-12-05T09:31:10;1.10;85.00
3075;DHT22;1548;51.716;8.748;2022-12-05T09:33:37;1.20;85.00
3075;DHT22;1548;51.716;8.748;2022-12-05T09:36:28;1.20;85.00
3075;DHT22;1548;51.716;8.748;2022-12-05T09:38:53;1.20;85.10
3075;DHT22;1548;51.716;8.748;2022-12-05T09:47:37;1.30;85.10
3075;DHT22;1548;51.716;8.748;2022-12-05T09:50:16;1.30;85.10
3075;DHT22;1548;51.716;8.748;2022-12-05T09:53:04;1.30;85.10
3075;DHT22;1548;51.716;8.748;2022-12-05T09:55:46;1.30;85.10
3075;DHT22;1548;51.716;8.748;2022-12-05T10:00:45;1.40;85.20
3075;DHT22;1548;51.716;8.748;2022-12-05T10:03:23;1.40;85.10
3075;DHT22;1548;51.716;8.748;2022-12-05T10:06:08;1.40;85.20
3075;DHT22;1548;51.716;8.748;2022-12-05T10:16:57;1.30;85.20
3075;DHT22;1548;51.716;8.748;2022-12-05T10:19:37;1.30;85.20
3075;DHT22;1548;51.716;8.748;2022-12-05T10:22:12;1.30;85.20
3075;DHT22;1548;51.716;8.748;2022-12-05T10:24:52;1.30;85.10
3075;DHT22;1548;51.716;8.748;2022-12-05T10:27:23;1.30;85.20
3075;DHT22;1548;51.716;8.748;2022-12-05T10:30:01;1.20;85.20
3075;DHT22;1548;51.716;8.748;2022-12-05T10:32:36;1.30;85.10
3075;DHT22;1548;51.716;8.748;2022-12-05T10:35:21;1.20;85.20
3075;DHT22;1548;51.716;8.748;2022-12-05T10:37:52;1.20;85.20
3075;DHT22;1548;51.716;8.748;2022-12-05T10:40:19;1.20;85.20
3075;DHT22;1548;51.716;8.748;2022-12-05T10:42:46;1.20;85.10
3075;DHT22;1548;51.716;8.748;2022-12-05T10:45:22;1.20;85.10
3075;DHT22;1548;51.716;8.748;2022-12-05T10:47:52;1.30;85.10
3075;DHT22;1548;51.716;8.748;2022-12-05T10:50:38;1.20;85.20
3075;DHT22;1548;51.716;8.748;2022-12-05T10:53:05;1.10;85.10
3075;DHT22;1548;51.716;8.748;2022-12-05T10:55:43;1.10;85.10
3075;DHT22;1548;51.716;8.748;2022-12-05T10:58:25;1.00;85.10
3075;DHT22;1548;51.716;8.748;2022-12-05T11:01:07;1.10;85.00
3075;DHT22;1548;51.716;8.748;2022-12-05T11:03:38;1.20;85.00
3075;DHT22;1548;51.716;8.748;2022-12-05T11:06:37;1.20;85.10
3075;DHT22;1548;51.716;8.748;2022-12-05T11:09:12;1.30;85.10
3075;DHT22;1548;51.716;8.748;2022-12-05T11:11:38;1.30;85.10
3075;DHT22;1548;51.716;8.748;2022-12-05T11:14:06;1.30;85.20
3075;DHT22;1548;51.716;8.748;2022-12-05T11:16:54;1.30;85.00
3075;DHT22;1548;51.716;8.748;2022-12-05T11:21:46;1.50;85.00
3075;DHT22;1548;51.716;8.748;2022-12-05T11:27:27;1.50;85.20
3075;DHT22;1548;51.716;8.748;2022-12-05T11:29:59;1.50;85.20
3075;DHT22;1548;51.716;8.748;2022-12-05T11:32:28;1.40;85.20
3075;DHT22;1548;51.716;8.748;2022-12-05T11:37:32;1.50;85.20
3075;DHT22;1548;51.716;8.748;2022-12-05T11:40:00;1.60;84.90
3075;DHT22;1548;51.716;8.748;2022-12-05T11:42:36;1.70;85.00
3075;DHT22;1548;51.716;8.748;2022-12-05T11:47:47;1.80;85.10
3075;DHT22;1548;51.716;8.748;2022-12-05T11:56:29;1.70;85.10
3075;DHT22;1548;51.716;8.748;2022-12-05T11:59:12;1.60;85.30
3075;DHT22;1548;51.716;8.748;2022-12-05T12:01:45;1.70;85.20
3075;DHT22;1548;51.716;8.748;2022-12-05T12:07:01;1.80;85.20
3075;DHT22;1548;51.716;8.748;2022-12-05T12:14:45;1.40;85.50
3075;DHT22;1548;51.716;8.748;2022-12-05T12:21:07;1.40;85.20
3075;DHT22;1548;51.716;8.748;2022-12-05T12:37:26;1.30;85.20
3075;DHT22;1548;51.716;8.748;2022-12-05T12:40:19;1.10;85.30
3075;DHT22;1548;51.716;8.748;2022-12-05T12:42:55;1.20;85.10
3075;DHT22;1548;51.716;8.748;2022-12-05T12:45:37;1.20;85.10
3075;DHT22;1548;51.716;8.748;2022-12-05T12:50:50;1.50;85.20
3075;DHT22;1548;51.716;8.748;2022-12-05T12:58:38;1.30;85.20
3075;DHT22;1548;51.716;8.748;2022-12-05T13:04:35;1.40;85.20
3075;DHT22;1548;51.716;8.748;2022-12-05T13:07:07;1.40;85.30
3075;DHT22;1548;51.716;8.748;2022-12-05T13:09:46;1.40;85.20
3075;DHT22;1548;51.716;8.748;2022-12-05T13:12:16;1.40;85.20
3075;DHT22;1548;51.716;8.748;2022-12-05T13:14:57;1.40;85.20
3075;DHT22;1548;51.716;8.748;2022-12-05T13:17:24;1.30;85.40
3075;DHT22;1548;51.716;8.748;2022-12-05T13:19:52;1.20;85.30
3075;DHT22;1548;51.716;8.748;2022-12-05T13:22:19;1.30;85.30
3075;DHT22;1548;51.716;8.748;2022-12-05T13:24:48;1.30;85.30
3075;DHT22;1548;51.716;8.748;2022-12-05T13:27:22;1.20;85.20
3075;DHT22;1548;51.716;8.748;2022-12-05T13:30:00;1.10;85.20
3075;DHT22;1548;51.716;8.748;2022-12-05T13:35:05;1.20;85.10
3075;DHT22;1548;51.716;8.748;2022-12-05T13:37:33;1.20;85.20
3075;DHT22;1548;51.716;8.748;2022-12-05T13:40:32;1.30;85.10
3075;DHT22;1548;51.716;8.748;2022-12-05T13:43:22;1.40;85.20
3075;DHT22;1548;51.716;8.748;2022-12-05T13:46:06;1.40;85.30
3075;DHT22;1548;51.716;8.748;2022-12-05T13:48:39;1.30;85.30
3075;DHT22;1548;51.716;8.748;2022-12-05T13:51:23;1.30;85.20
3075;DHT22;1548;51.716;8.748;2022-12-05T13:54:14;1.30;85.30
3075;DHT22;1548;51.716;8.748;2022-12-05T13:56:59;1.20;85.30
3075;DHT22;1548;51.716;8.748;2022-12-05T14:07:58;1.30;85.20
3075;DHT22;1548;51.716;8.748;2022-12-05T14:13:00;1.40;85.40
3075;DHT22;1548;51.716;8.748;2022-12-05T14:15:37;1.20;85.30
3075;DHT22;1548;51.716;8.748;2022-12-05T14:29:02;1.20;85.20
3075;DHT22;1548;51.716;8.748;2022-12-05T14:34:31;1.20;85.20
3075;DHT22;1548;51.716;8.748;2022-12-05T14:39:38;1.40;85.30
3075;DHT22;1548;51.716;8.748;2022-12-05T14:47:55;1.50;85.40
3075;DHT22;1548;51.716;8.748;2022-12-05T14:50:34;1.60;85.20
3075;DHT22;1548;51.716;8.748;2022-12-05T14:53:36;1.60;85.40
3075;DHT22;1548;51.716;8.748;2022-12-05T14:56:18;1.70;85.20
3075;DHT22;1548;51.716;8.748;2022-12-05T15:01:46;1.70;85.40
3075;DHT22;1548;51.716;8.748;2022-12-05T15:04:37;1.80;85.30
3075;DHT22;1548;51.716;8.748;2022-12-05T15:07:16;1.80;85.40
3075;DHT22;1548;51.716;8.748;2022-12-05T15:15:07;1.90;85.40
3075;DHT22;1548;51.716;8.748;2022-12-05T15:17:55;1.90;85.60
3075;DHT22;1548;51.716;8.748;2022-12-05T15:23:43;1.80;85.40
3075;DHT22;1548;51.716;8.748;2022-12-05T15:26:22;1.90;85.50
3075;DHT22;1548;51.716;8.748;2022-12-05T15:29:05;1.80;85.40
3075;DHT22;1548;51.716;8.748;2022-12-05T15:31:35;1.90;85.50
3075;DHT22;1548;51.716;8.748;2022-12-05T15:36:56;1.50;85.50
3075;DHT22;1548;51.716;8.748;2022-12-05T15:39:24;1.50;85.50
3075;DHT22;1548;51.716;8.748;2022-12-05T15:41:54;1.70;85.40
3075;DHT22;1548;51.716;8.748;2022-12-05T15:44:21;1.70;85.60
3075;DHT22;1548;51.716;8.748;2022-12-05T15:46:51;1.80;85.30
3075;DHT22;1548;51.716;8.748;2022-12-05T15:49:25;1.80;85.50
3075;DHT22;1548;51.716;8.748;2022-12-05T15:51:55;1.80;85.30
3075;DHT22;1548;51.716;8.748;2022-12-05T15:54:31;1.90;85.50
3075;DHT22;1548;51.716;8.748;2022-12-05T15:57:23;1.90;85.40
3075;DHT22;1548;51.716;8.748;2022-12-05T15:59:55;1.80;85.40
3075;DHT22;1548;51.716;8.748;2022-12-05T16:02:37;1.80;85.30
3075;DHT22;1548;51.716;8.748;2022-12-05T16:05:25;1.90;85.40
3075;DHT22;1548;51.716;8.748;2022-12-05T16:07:51;2.00;85.40
3075;DHT22;1548;51.716;8.748;2022-12-05T16:10:19;1.80;85.50
3075;DHT22;1548;51.716;8.748;2022-12-05T16:12:46;1.80;85.50
3075;DHT22;1548;51.716;8.748;2022-12-05T16:15:23;1.60;85.50
3075;DHT22;1548;51.716;8.748;2022-12-05T16:17:57;1.60;85.40
3075;DHT22;1548;51.716;8.748;2022-12-05T16:20:27;1.60;85.60
3075;DHT22;1548;51.716;8.748;2022-12-05T16:22:57;1.50;85.60
3075;DHT22;1548;51.716;8.748;2022-12-05T16:25:41;1.50;85.30
3075;DHT22;1548;51.716;8.748;2022-12-05T16:30:33;1.40;85.40
3075;DHT22;1548;51.716;8.748;2022-12-05T16:33:15;1.30;85.30
3075;DHT22;1548;51.716;8.748;2022-12-05T16:35:42;1.30;85.30
3075;DHT22;1548;51.716;8.748;2022-12-05T16:41:03;1.20;85.20
3075;DHT22;1548;51.716;8.748;2022-12-05T16:48:43;1.20;85.10
3075;DHT22;1548;51.716;8.748;2022-12-05T16:53:45;1.10;85.10
3075;DHT22;1548;51.716;8.748;2022-12-05T16:56:25;1.20;85.10
3075;DHT22;1548;51.716;8.748;2022-12-05T16:58:52;1.10;85.20
3075;DHT22;1548;51.716;8.748;2022-12-05T17:01:21;1.10;85.10
3075;DHT22;1548;51.716;8.748;2022-12-05T17:03:47;1.10;85.10
3075;DHT22;1548;51.716;8.748;2022-12-05T17:06:13;1.20;85.20
3075;DHT22;1548;51.716;8.748;2022-12-05T17:08:40;1.00;85.30
3075;DHT22;1548;51.716;8.748;2022-12-05T17:11:11;1.00;85.20
3075;DHT22;1548;51.716;8.748;2022-12-05T17:13:38;0.90;85.10
3075;DHT22;1548;51.716;8.748;2022-12-05T17:16:04;0.90;84.90
3075;DHT22;1548;51.716;8.748;2022-12-05T17:18:30;1.00;85.10
3075;DHT22;1548;51.716;8.748;2022-12-05T17:20:56;0.90;85.10
3075;DHT22;1548;51.716;8.748;2022-12-05T17:23:23;1.00;84.90
3075;DHT22;1548;51.716;8.748;2022-12-05T17:25:51;1.00;85.10
3075;DHT22;1548;51.716;8.748;2022-12-05T17:28:17;1.10;85.10
3075;DHT22;1548;51.716;8.748;2022-12-05T17:30:43;1.10;85.00
3075;DHT22;1548;51.716;8.748;2022-12-05T17:33:13;1.00;85.30
3075;DHT22;1548;51.716;8.748;2022-12-05T17:35:40;1.10;85.00
3075;DHT22;1548;51.716;8.748;2022-12-05T17:38:06;1.20;85.00
3075;DHT22;1548;51.716;8.748;2022-12-05T17:40:32;1.30;85.00
3075;DHT22;1548;51.716;8.748;2022-12-05T17:42:58;1.30;85.20
3075;DHT22;1548;51.716;8.748;2022-12-05T17:45:24;1.30;85.10
3075;DHT22;1548;51.716;8.748;2022-12-05T17:47:50;1.40;85.20
3075;DHT22;1548;51.716;8.748;2022-12-05T17:50:19;1.50;85.00
3075;DHT22;1548;51.716;8.748;2022-12-05T17:52:48;1.60;85.00
3075;DHT22;1548;51.716;8.748;2022-12-05T17:55:22;1.60;85.20
3075;DHT22;1548;51.716;8.748;2022-12-05T17:57:48;1.50;85.40
3075;DHT22;1548;51.716;8.748;2022-12-05T18:00:15;1.60;85.20
3075;DHT22;1548;51.716;8.748;2022-12-05T18:02:42;1.60;85.30
3075;DHT22;1548;51.716;8.748;2022-12-05T18:05:10;1.60;85.30
3075;DHT22;1548;51.716;8.748;2022-12-05T18:07:37;1.50;85.50
3075;DHT22;1548;51.716;8.748;2022-12-05T18:10:04;1.30;85.50
3075;DHT22;1548;51.716;8.748;2022-12-05T18:12:30;1.30;85.30
3075;DHT22;1548;51.716;8.748;2022-12-05T18:14:56;1.30;85.30
3075;DHT22;1548;51.716;8.748;2022-12-05T18:17:21;1.40;85.40
3075;DHT22;1548;51.716;8.748;2022-12-05T18:19:49;1.40;85.40
3075;DHT22;1548;51.716;8.748;2022-12-05T18:22:14;1.40;85.30
3075;DHT22;1548;51.716;8.748;2022-12-05T18:24:40;1.50;85.30
3075;DHT22;1548;51.716;8.748;2022-12-05T18:27:06;1.50;85.30
3075;DHT22;1548;51.716;8.748;2022-12-05T18:29:31;1.50;85.50
3075;DHT22;1548;51.716;8.748;2022-12-05T18:31:57;1.50;85.30
3075;DHT22;1548;51.716;8.748;2022-12-05T18:34:23;1.50;85.40
3075;DHT22;1548;51.716;8.748;2022-12-05T18:36:48;1.50;85.30
3075;DHT22;1548;51.716;8.748;2022-12-05T18:39:14;1.20;85.30
3075;DHT22;1548;51.716;8.748;2022-12-05T18:41:40;1.30;85.30
3075;DHT22;1548;51.716;8.748;2022-12-05T18:44:07;1.30;85.30
3075;DHT22;1548;51.716;8.748;2022-12-05T18:46:34;1.20;85.20
3075;DHT22;1548;51.716;8.748;2022-12-05T18:49:01;1.30;85.30
3075;DHT22;1548;51.716;8.748;2022-12-05T18:51:26;1.20;85.40
3075;DHT22;1548;51.716;8.748;2022-12-05T18:53:52;1.20;85.40
3075;DHT22;1548;51.716;8.748;2022-12-05T18:56:29;1.10;85.20
3075;DHT22;1548;51.716;8.748;2022-12-05T18:58:59;1.20;85.20
3075;DHT22;1548;51.716;8.748;2022-12-05T19:01:30;1.20;85.10
3075;DHT22;1548;51.716;8.748;2022-12-05T19:03:56;1.30;85.20
3075;DHT22;1548;51.716;8.748;2022-12-05T19:06:25;1.20;85.30
3075;DHT22;1548;51.716;8.748;2022-12-05T19:08:56;1.30;85.10
3075;DHT22;1548;51.716;8.748;2022-12-05T19:11:23;1.20;85.40
3075;DHT22;1548;51.716;8.748;2022-12-05T19:13:57;1.20;85.10
3075;DHT22;1548;51.716;8.748;2022-12-05T19:16:23;1.40;85.10
3075;DHT22;1548;51.716;8.748;2022-12-05T19:18:53;1.40;85.20
3075;DHT22;1548;51.716;8.748;2022-12-05T19:21:26;1.30;85.40
3075;DHT22;1548;51.716;8.748;2022-12-05T19:23:52;1.10;85.20